createdAt,value
2022-08-17T00:01:52.086Z,25.59
2022-08-17T00:12:40.723Z,25.21
2022-08-17T00:22:33.695Z,24.94
2022-08-17T00:33:12.501Z,24.81
2022-08-17T00:43:21.466Z,25.36
2022-08-17T00:53:25.841Z,25.45
2022-08-17T01:03:28.666Z,25.16
2022-08-17T01:13:40.798Z,25.08
2022-08-17T01:23:43.542Z,24.99
2022-08-17T01:33:45.743Z,25.09
2022-08-17T01:44:02.958Z,25.05
2022-08-17T01:54:09.831Z,24.50
2022-08-17T02:04:12.387Z,24.26
2022-08-17T02:14:14.845Z,24.40
2022-08-17T02:25:01.219Z,23.92
2022-08-17T02:34:48.573Z,24.18
2022-08-17T02:44:50.438Z,24.15
2022-08-17T02:54:52.591Z,24.00
2022-08-17T03:04:54.751Z,23.93
2022-08-17T03:14:56.784Z,24.07
2022-08-17T03:24:58.902Z,23.91
2022-08-17T03:35:01.494Z,23.89
2022-08-17T03:45:04.398Z,23.92
2022-08-17T03:55:32.908Z,23.60
2022-08-17T04:05:39.234Z,23.68
2022-08-17T04:15:42.091Z,23.48
2022-08-17T04:25:48.380Z,23.45
2022-08-17T04:35:52.324Z,23.49
2022-08-17T04:46:00.868Z,23.39
2022-08-17T04:56:03.163Z,23.57
2022-08-17T05:06:05.958Z,23.53
2022-08-17T05:16:18.673Z,23.39
2022-08-17T05:26:25.694Z,23.10
2022-08-17T05:36:41.591Z,23.69
2022-08-17T05:46:51.247Z,23.53
2022-08-17T05:57:06.677Z,23.87
2022-08-17T06:07:29.444Z,24.19
2022-08-17T06:17:31.895Z,24.09
2022-08-17T06:27:39.032Z,24.14
2022-08-17T06:38:02.192Z,24.40
2022-08-17T06:48:13.631Z,24.53
2022-08-17T06:58:23.609Z,24.60
2022-08-17T07:09:12.987Z,24.90
2022-08-17T07:19:56.766Z,24.85
2022-08-17T07:30:04.686Z,25.33
2022-08-17T07:40:33.510Z,25.23
2022-08-17T07:50:35.600Z,25.56
2022-08-17T08:00:39.643Z,25.34
2022-08-17T08:10:46.964Z,25.02
2022-08-17T08:20:57.257Z,24.86
2022-08-17T08:31:14.494Z,24.57
2022-08-17T08:41:32.696Z,24.84
2022-08-17T08:51:47.327Z,24.69
2022-08-17T09:02:24.055Z,24.84
2022-08-17T09:12:35.166Z,24.93
2022-08-17T09:22:52.153Z,24.65
2022-08-17T09:33:02.850Z,24.51
2022-08-17T09:43:17.302Z,24.49
2022-08-17T09:53:20.042Z,25.79
2022-08-17T10:03:55.955Z,25.48
2022-08-17T10:14:36.421Z,25.47
2022-08-17T10:25:23.121Z,26.11
2022-08-17T10:35:47.268Z,26.09
2022-08-17T10:46:10.317Z,26.16
2022-08-17T10:56:51.166Z,26.12
2022-08-17T11:07:03.060Z,25.95
2022-08-17T11:17:50.360Z,26.68
2022-08-17T11:28:14.107Z,26.21
2022-08-17T11:38:31.559Z,27.08
2022-08-17T11:49:03.446Z,26.94
2022-08-17T11:59:32.771Z,27.58
2022-08-17T12:09:41.633Z,27.73
2022-08-17T12:19:45.171Z,27.80
2022-08-17T12:29:49.586Z,28.07
2022-08-17T12:39:53.934Z,28.64
2022-08-17T12:50:08.469Z,28.60
2022-08-17T13:00:38.265Z,28.28
2022-08-17T13:10:40.797Z,28.96
2022-08-17T13:20:53.559Z,28.79
2022-08-17T13:31:28.566Z,28.64
2022-08-17T13:41:34.847Z,28.75
2022-08-17T13:51:43.995Z,28.75
2022-08-17T14:01:53.441Z,28.59
2022-08-17T14:11:57.866Z,28.10
2022-08-17T14:21:59.920Z,27.18
2022-08-17T14:32:07.153Z,27.68
2022-08-17T14:42:09.579Z,27.94
2022-08-17T14:52:13.097Z,27.71
2022-08-17T15:02:15.365Z,27.85
2022-08-17T15:12:22.190Z,28.21
2022-08-17T15:22:27.362Z,28.20
2022-08-17T15:32:34.855Z,27.69
2022-08-17T15:42:37.339Z,27.94
2022-08-17T15:52:41.174Z,27.96
2022-08-17T16:03:46.439Z,27.91
2022-08-17T16:13:06.022Z,27.91
2022-08-17T16:23:20.612Z,27.97
2022-08-17T16:33:22.623Z,27.89
2022-08-17T16:43:24.568Z,27.80
2022-08-17T16:53:26.961Z,27.65
2022-08-17T17:03:30.759Z,27.61
2022-08-17T17:13:54.249Z,27.68
2022-08-17T17:24:01.253Z,27.52
2022-08-17T17:34:06.629Z,27.04
2022-08-17T17:44:13.153Z,27.17
2022-08-17T17:54:38.001Z,27.31
2022-08-17T18:04:49.842Z,27.18
2022-08-17T18:15:13.431Z,27.12
2022-08-17T18:25:47.375Z,26.89
2022-08-17T18:35:58.696Z,26.75
2022-08-17T18:46:34.129Z,26.69
2022-08-17T18:56:41.930Z,26.48
2022-08-17T19:06:43.972Z,26.10
2022-08-17T19:16:51.551Z,26.18
2022-08-17T19:27:12.096Z,26.28
2022-08-17T19:37:58.401Z,25.96
2022-08-17T19:48:26.645Z,25.74
2022-08-17T19:58:51.590Z,25.86
2022-08-17T20:09:09.527Z,25.65
2022-08-17T20:19:23.709Z,25.61
2022-08-17T20:29:31.871Z,25.40
2022-08-17T20:39:43.273Z,25.37
2022-08-17T20:49:45.983Z,25.24
2022-08-17T20:59:48.017Z,25.12
2022-08-17T21:09:51.085Z,25.09
2022-08-17T21:20:11.554Z,25.12
2022-08-17T21:30:29.408Z,25.15
2022-08-17T21:40:34.114Z,25.26
2022-08-17T21:50:36.549Z,25.17
2022-08-17T22:00:38.725Z,24.65
2022-08-17T22:10:44.686Z,24.65
2022-08-17T22:20:50.893Z,24.65
2022-08-17T22:31:02.108Z,24.30
2022-08-17T22:41:23.792Z,24.41
2022-08-17T22:51:31.073Z,24.28
2022-08-17T23:01:36.145Z,23.85
2022-08-17T23:11:48.795Z,23.79
2022-08-17T23:21:52.824Z,24.06
2022-08-17T23:31:57.976Z,23.91
2022-08-17T23:42:03.518Z,23.96
2022-08-17T23:52:10.126Z,23.71
